createdAt,value
2017-12-29T00:00:41.987Z,0
2017-12-29T00:01:41.390Z,0
2017-12-29T00:02:41.626Z,0
2017-12-29T00:03:42.140Z,0
2017-12-29T00:04:41.849Z,0
2017-12-29T00:05:42.086Z,0
2017-12-29T00:06:41.539Z,0
2017-12-29T00:07:41.513Z,0
2017-12-29T00:08:41.756Z,0
2017-12-29T00:09:41.472Z,0
2017-12-29T00:10:41.709Z,0
2017-12-29T00:11:41.688Z,0
2017-12-29T00:12:41.140Z,0
2017-12-29T00:13:41.380Z,0
2017-12-29T00:14:41.363Z,0
2017-12-29T00:15:41.624Z,0
2017-12-29T00:16:41.780Z,0
2017-12-29T00:17:41.550Z,0
2017-12-29T00:18:41.796Z,0
2017-12-29T00:19:41.509Z,0
2017-12-29T00:20:41.493Z,0
2017-12-29T00:21:41.198Z,0
2017-12-29T00:22:41.438Z,0
2017-12-29T00:23:41.159Z,0
2017-12-29T00:24:41.716Z,0
2017-12-29T00:25:41.366Z,0
2017-12-29T00:26:41.350Z,0
2017-12-29T00:27:40.802Z,0
2017-12-29T00:28:41.316Z,0
2017-12-29T00:29:41.275Z,0
2017-12-29T00:30:41.257Z,0
2017-12-29T00:31:41.240Z,0
2017-12-29T00:32:40.685Z,0
2017-12-29T00:33:40.930Z,0
2017-12-29T00:34:41.171Z,0
2017-12-29T00:35:41.144Z,0
2017-12-29T00:36:41.124Z,0
2017-12-29T00:37:41.096Z,0
2017-12-29T00:38:40.816Z,0
2017-12-29T00:39:41.045Z,0
2017-12-29T00:40:40.502Z,0
2017-12-29T00:41:41.013Z,0
2017-12-29T00:42:40.726Z,0
2017-12-29T00:43:40.964Z,0
2017-12-29T00:44:40.673Z,0
2017-12-29T00:45:41.230Z,0
2017-12-29T00:46:40.896Z,0
2017-12-29T00:47:40.345Z,0
2017-12-29T00:48:40.854Z,0
2017-12-29T00:49:41.090Z,0
2017-12-29T00:50:40.542Z,0
2017-12-29T00:51:40.518Z,0
2017-12-29T00:52:40.759Z,0
2017-12-29T00:53:40.740Z,0
2017-12-29T00:54:40.974Z,0
2017-12-29T00:55:40.954Z,0
2017-12-29T00:56:40.672Z,0
2017-12-29T00:57:40.692Z,0
2017-12-29T00:58:40.893Z,0
2017-12-29T00:59:40.605Z,0
2017-12-29T01:00:40.581Z,0
2017-12-29T01:01:40.027Z,0
2017-12-29T01:02:40.540Z,0
2017-12-29T01:03:40.508Z,0
2017-12-29T01:04:40.482Z,0
2017-12-29T01:05:40.461Z,0
2017-12-29T01:06:40.184Z,0
2017-12-29T01:07:40.220Z,0
2017-12-29T01:08:40.174Z,0
2017-12-29T01:09:40.381Z,0
2017-12-29T01:10:39.823Z,0
2017-12-29T01:11:39.804Z,0
2017-12-29T01:12:40.303Z,0
2017-12-29T01:13:40.013Z,0
2017-12-29T01:14:39.992Z,0
2017-12-29T01:15:40.232Z,0
2017-12-29T01:16:39.682Z,0
2017-12-29T01:17:40.458Z,0
2017-12-29T01:18:40.169Z,0
2017-12-29T01:19:40.145Z,0
2017-12-29T01:20:40.397Z,0
2017-12-29T01:21:39.837Z,0
2017-12-29T01:22:40.079Z,0
2017-12-29T01:23:39.790Z,0
2017-12-29T01:24:40.291Z,0
2017-12-29T01:25:40.010Z,0
2017-12-29T01:26:39.992Z,0
2017-12-29T01:27:40.234Z,0
2017-12-29T01:28:39.941Z,0
2017-12-29T01:29:39.917Z,0
2017-12-29T01:30:39.641Z,0
2017-12-29T01:31:39.875Z,0
2017-12-29T01:32:39.857Z,0
2017-12-29T01:33:39.558Z,0
2017-12-29T01:34:39.803Z,0
2017-12-29T01:35:39.781Z,0
2017-12-29T01:36:39.501Z,0
2017-12-29T01:37:39.471Z,0
2017-12-29T01:38:39.450Z,0
2017-12-29T01:39:39.685Z,0
2017-12-29T01:40:39.674Z,0
2017-12-29T01:41:39.908Z,0
2017-12-29T01:42:39.094Z,0
2017-12-29T01:43:39.333Z,0
2017-12-29T01:44:39.045Z,0
2017-12-29T01:45:39.548Z,0
2017-12-29T01:46:39.524Z,0
2017-12-29T01:47:38.988Z,0
2017-12-29T01:48:39.221Z,0
2017-12-29T01:49:39.193Z,0
2017-12-29T01:50:39.758Z,0
2017-12-29T01:51:39.680Z,0
2017-12-29T01:52:39.397Z,0
2017-12-29T01:53:38.848Z,0
2017-12-29T01:54:39.347Z,0
2017-12-29T01:55:39.323Z,0
2017-12-29T01:56:39.037Z,0
2017-12-29T01:57:39.275Z,0
2017-12-29T01:58:39.522Z,0
2017-12-29T01:59:38.970Z,0
2017-12-29T02:00:39.469Z,0
2017-12-29T02:01:39.183Z,0
2017-12-29T02:02:38.908Z,0
2017-12-29T02:03:39.137Z,0
2017-12-29T02:04:38.862Z,0
2017-12-29T02:05:39.356Z,0
2017-12-29T02:06:38.810Z,0
2017-12-29T02:07:39.044Z,0
2017-12-29T02:08:39.026Z,0
2017-12-29T02:09:38.742Z,0
2017-12-29T02:10:38.709Z,0
2017-12-29T02:11:38.697Z,0
2017-12-29T02:12:38.937Z,0
2017-12-29T02:13:38.905Z,0
2017-12-29T02:14:38.881Z,0
2017-12-29T02:15:38.868Z,0
2017-12-29T02:16:38.834Z,0
2017-12-29T02:17:38.288Z,0
2017-12-29T02:18:38.527Z,0
2017-12-29T02:19:38.237Z,0
2017-12-29T02:20:38.219Z,0
2017-12-29T02:21:38.728Z,0
2017-12-29T02:22:38.963Z,0
2017-12-29T02:23:38.687Z,0
2017-12-29T02:24:38.920Z,0
2017-12-29T02:25:38.626Z,0
2017-12-29T02:26:38.614Z,0
2017-12-29T02:27:38.581Z,0
2017-12-29T02:28:38.297Z,0
2017-12-29T02:29:38.539Z,0
2017-12-29T02:30:38.253Z,0
2017-12-29T02:31:38.498Z,0
2017-12-29T02:32:38.471Z,0
2017-12-29T02:33:38.706Z,0
2017-12-29T02:34:38.422Z,0
2017-12-29T02:35:38.132Z,0
2017-12-29T02:36:37.857Z,0
2017-12-29T02:37:38.356Z,0
2017-12-29T02:38:38.618Z,0
2017-12-29T02:39:37.781Z,0
2017-12-29T02:40:38.286Z,0
2017-12-29T02:41:37.990Z,0
2017-12-29T02:42:38.232Z,0
2017-12-29T02:43:37.684Z,0
2017-12-29T02:44:37.928Z,0
2017-12-29T02:45:37.909Z,0
2017-12-29T02:46:38.142Z,0
2017-12-29T02:47:37.850Z,0
2017-12-29T02:48:37.833Z,0
2017-12-29T02:49:38.068Z,0
2017-12-29T02:50:38.052Z,0
2017-12-29T02:51:38.028Z,0
2017-12-29T02:52:37.738Z,0
2017-12-29T02:53:37.973Z,0
2017-12-29T02:54:37.958Z,0
2017-12-29T02:55:38.191Z,0
2017-12-29T02:56:37.645Z,0
2017-12-29T02:57:37.625Z,0
2017-12-29T02:58:38.130Z,0
2017-12-29T02:59:38.091Z,0
2017-12-29T03:00:37.808Z,0
2017-12-29T03:01:37.790Z,0
2017-12-29T03:02:38.034Z,0
2017-12-29T03:03:37.797Z,0
2017-12-29T03:04:37.455Z,0
2017-12-29T03:05:37.742Z,0
2017-12-29T03:06:37.140Z,0
2017-12-29T03:07:37.655Z,0
2017-12-29T03:08:37.622Z,0
2017-12-29T03:09:37.343Z,0
2017-12-29T03:10:37.574Z,0
2017-12-29T03:11:37.284Z,0
2017-12-29T03:12:37.534Z,0
2017-12-29T03:13:37.506Z,0
2017-12-29T03:14:37.484Z,0
2017-12-29T03:15:37.717Z,0
2017-12-29T03:16:37.439Z,0
2017-12-29T03:17:37.151Z,0
2017-12-29T03:18:37.647Z,0
2017-12-29T03:19:37.102Z,0
2017-12-29T03:20:37.077Z,0
2017-12-29T03:21:37.585Z,0
2017-12-29T03:22:37.028Z,0
2017-12-29T03:23:37.265Z,0
2017-12-29T03:24:36.987Z,0
2017-12-29T03:25:37.232Z,0
2017-12-29T03:26:37.196Z,0
2017-12-29T03:28:37.152Z,0
2017-12-29T03:29:37.124Z,0
2017-12-29T03:30:37.105Z,0
2017-12-29T03:31:36.555Z,0
2017-12-29T03:32:37.317Z,0
2017-12-29T03:33:36.761Z,0
2017-12-29T03:34:37.005Z,0
2017-12-29T03:35:36.984Z,0
2017-12-29T03:36:36.690Z,0
2017-12-29T03:37:36.671Z,0
2017-12-29T03:38:36.643Z,0
2017-12-29T03:39:36.620Z,0
2017-12-29T03:40:37.123Z,0
2017-12-29T03:41:36.578Z,0
2017-12-29T03:42:37.080Z,0
2017-12-29T03:43:36.791Z,0
2017-12-29T03:44:36.776Z,0
2017-12-29T03:45:36.746Z,0
2017-12-29T03:46:36.464Z,0
2017-12-29T03:47:36.437Z,0
2017-12-29T03:48:36.407Z,0
2017-12-29T03:49:36.653Z,0
2017-12-29T03:50:36.894Z,0
2017-12-29T03:51:36.341Z,0
2017-12-29T03:52:36.317Z,0
2017-12-29T03:53:36.552Z,0
2017-12-29T03:54:36.795Z,0
2017-12-29T03:55:36.240Z,0
2017-12-29T03:56:35.958Z,0
2017-12-29T03:57:36.458Z,0
2017-12-29T03:58:35.909Z,0
2017-12-29T03:59:36.149Z,0
2017-12-29T04:00:36.380Z,0
2017-12-29T04:01:36.366Z,0
2017-12-29T04:02:36.344Z,0
2017-12-29T04:03:36.056Z,0
2017-12-29T04:04:35.764Z,0
2017-12-29T04:05:36.272Z,0
2017-12-29T04:06:35.986Z,0
2017-12-29T04:07:35.963Z,0
2017-12-29T04:08:35.931Z,0
2017-12-29T04:09:35.647Z,0
2017-12-29T04:10:36.153Z,0
2017-12-29T04:11:35.596Z,0
2017-12-29T04:12:35.840Z,0
2017-12-29T04:13:36.070Z,0
2017-12-29T04:14:35.794Z,0
2017-12-29T04:15:36.034Z,0
2017-12-29T04:16:35.750Z,0
2017-12-29T04:17:36.442Z,0
2017-12-29T04:18:35.694Z,0
2017-12-29T04:19:35.932Z,0
2017-12-29T04:20:36.184Z,0
2017-12-29T04:21:35.882Z,0
2017-12-29T04:22:36.178Z,0
2017-12-29T04:23:36.093Z,0
2017-12-29T04:24:35.551Z,0
2017-12-29T04:25:35.265Z,0
2017-12-29T04:26:36.022Z,0
2017-12-29T04:27:35.479Z,0
2017-12-29T04:28:35.456Z,0
2017-12-29T04:29:35.430Z,0
2017-12-29T04:30:35.669Z,0
2017-12-29T04:31:35.645Z,0
2017-12-29T04:32:35.354Z,0
2017-12-29T04:33:35.601Z,0
2017-12-29T04:34:35.569Z,0
2017-12-29T04:35:35.285Z,0
2017-12-29T04:36:35.263Z,0
2017-12-29T04:37:35.768Z,0
2017-12-29T04:38:35.742Z,0
2017-12-29T04:39:35.452Z,0
2017-12-29T04:40:35.427Z,0
2017-12-29T04:41:35.666Z,0
2017-12-29T04:42:35.379Z,0
2017-12-29T04:43:35.091Z,0
2017-12-29T04:44:35.341Z,0
2017-12-29T04:45:35.047Z,0
2017-12-29T04:46:35.288Z,0
2017-12-29T04:47:35.054Z,0
2017-12-29T04:48:35.497Z,0
2017-12-29T04:49:35.211Z,0
2017-12-29T04:50:34.940Z,0
2017-12-29T04:51:34.908Z,0
2017-12-29T04:52:35.137Z,0
2017-12-29T04:53:35.127Z,0
2017-12-29T04:54:34.826Z,0
2017-12-29T04:55:35.326Z,0
2017-12-29T04:56:35.044Z,0
2017-12-29T04:57:34.760Z,0
2017-12-29T04:58:34.993Z,0
2017-12-29T04:59:34.981Z,0
2017-12-29T05:00:34.949Z,0
2017-12-29T05:01:34.935Z,0
2017-12-29T05:02:34.907Z,0
2017-12-29T05:03:34.616Z,0
2017-12-29T05:04:34.330Z,0
2017-12-29T05:05:34.567Z,0
2017-12-29T05:06:34.544Z,0
2017-12-29T05:07:34.515Z,0
2017-12-29T05:08:34.497Z,0
2017-12-29T05:09:34.740Z,0
2017-12-29T05:10:34.719Z,0
2017-12-29T05:11:34.420Z,0
2017-12-29T05:12:34.930Z,0
2017-12-29T05:13:34.106Z,0
2017-12-29T05:14:34.611Z,0
2017-12-29T05:15:34.321Z,0
2017-12-29T05:16:34.826Z,0
2017-12-29T05:17:34.546Z,0
2017-12-29T05:18:33.991Z,0
2017-12-29T05:19:34.232Z,0
2017-12-29T05:20:34.470Z,0
2017-12-29T05:21:34.702Z,0
2017-12-29T05:22:34.157Z,0
2017-12-29T05:23:34.662Z,0
2017-12-29T05:24:34.369Z,0
2017-12-29T05:25:34.607Z,0
2017-12-29T05:26:34.057Z,0
2017-12-29T05:27:34.597Z,0
2017-12-29T05:28:34.014Z,0
2017-12-29T05:29:33.983Z,0
2017-12-29T05:30:34.228Z,0
2017-12-29T05:31:34.199Z,0
2017-12-29T05:32:34.441Z,0
2017-12-29T05:33:33.886Z,0
2017-12-29T05:34:33.923Z,0
2017-12-29T05:35:33.841Z,0
2017-12-29T05:36:33.823Z,0
2017-12-29T05:37:33.530Z,0
2017-12-29T05:38:34.038Z,0
2017-12-29T05:39:33.741Z,0
2017-12-29T05:40:33.715Z,0
2017-12-29T05:41:33.697Z,0
2017-12-29T05:42:33.933Z,0
2017-12-29T05:43:33.909Z,0
2017-12-29T05:44:33.886Z,0
2017-12-29T05:45:33.860Z,0
2017-12-29T05:46:33.322Z,0
2017-12-29T05:47:33.808Z,0
2017-12-29T05:48:33.262Z,0
2017-12-29T05:49:33.496Z,0
2017-12-29T05:50:33.479Z,0
2017-12-29T05:51:33.979Z,0
2017-12-29T05:52:33.166Z,0
2017-12-29T05:53:33.408Z,0
2017-12-29T05:54:33.121Z,0
2017-12-29T05:55:33.359Z,0
2017-12-29T05:56:33.595Z,0
2017-12-29T05:57:33.575Z,0
2017-12-29T05:58:33.286Z,0
2017-12-29T05:59:33.253Z,0
2017-12-29T06:00:33.498Z,0
2017-12-29T06:01:33.207Z,0
2017-12-29T06:02:32.925Z,0
2017-12-29T06:03:33.740Z,0
2017-12-29T06:04:33.148Z,0
2017-12-29T06:05:33.383Z,0
2017-12-29T06:06:33.088Z,0
2017-12-29T06:07:33.604Z,0
2017-12-29T06:08:33.039Z,0
2017-12-29T06:09:33.273Z,0
2017-12-29T06:10:32.988Z,0
2017-12-29T06:11:32.966Z,0
2017-12-29T06:12:33.206Z,0
2017-12-29T06:13:33.182Z,0
2017-12-29T06:14:32.901Z,0
2017-12-29T06:15:33.138Z,0
2017-12-29T06:16:32.857Z,0
2017-12-29T06:17:33.022Z,0
2017-12-29T06:18:32.537Z,0
2017-12-29T06:19:32.774Z,0
2017-12-29T06:20:32.749Z,0
2017-12-29T06:21:33.250Z,0
2017-12-29T06:22:32.702Z,0
2017-12-29T06:23:32.679Z,0
2017-12-29T06:24:32.923Z,0
2017-12-29T06:25:32.627Z,0
2017-12-29T06:26:32.866Z,0
2017-12-29T06:27:32.841Z,0
2017-12-29T06:28:32.827Z,0
2017-12-29T06:29:32.586Z,0
2017-12-29T06:30:32.772Z,0
2017-12-29T06:31:32.484Z,0
2017-12-29T06:32:32.720Z,0
2017-12-29T06:33:32.172Z,0
2017-12-29T06:34:32.944Z,0
2017-12-29T06:35:32.649Z,0
2017-12-29T06:36:32.626Z,0
2017-12-29T06:37:32.078Z,0
2017-12-29T06:38:32.058Z,0
2017-12-29T06:39:32.035Z,0
2017-12-29T06:40:32.532Z,0
2017-12-29T06:41:32.503Z,0
2017-12-29T06:42:32.482Z,0
2017-12-29T06:43:32.191Z,0
2017-12-29T06:44:32.174Z,0
2017-12-29T06:45:32.409Z,0
2017-12-29T06:46:31.855Z,0
2017-12-29T06:47:32.628Z,0
2017-12-29T06:48:32.082Z,0
2017-12-29T06:49:32.045Z,0
2017-12-29T06:50:31.760Z,0
2017-12-29T06:51:32.526Z,0
2017-12-29T06:52:32.236Z,0
2017-12-29T06:53:32.210Z,0
2017-12-29T06:54:32.464Z,0
2017-12-29T06:55:32.178Z,0
2017-12-29T06:56:32.148Z,0
2017-12-29T06:57:31.855Z,0
2017-12-29T06:58:32.100Z,0
2017-12-29T06:59:31.542Z,0
2017-12-29T07:00:32.312Z,0
2017-12-29T07:01:32.036Z,4
2017-12-29T07:02:32.272Z,4
2017-12-29T07:03:32.231Z,0
2017-12-29T07:04:31.949Z,4
2017-12-29T07:05:31.661Z,4
2017-12-29T07:06:32.161Z,4
2017-12-29T07:07:31.346Z,4
2017-12-29T07:08:32.109Z,8
2017-12-29T07:09:31.567Z,8
2017-12-29T07:10:31.538Z,8
2017-12-29T07:11:32.042Z,8
2017-12-29T07:12:31.489Z,12
2017-12-29T07:13:31.733Z,12
2017-12-29T07:14:31.717Z,16
2017-12-29T07:15:31.159Z,16
2017-12-29T07:16:31.383Z,20
2017-12-29T07:17:31.098Z,24
2017-12-29T07:18:31.082Z,28
2017-12-29T07:19:31.055Z,28
2017-12-29T07:20:31.553Z,36
2017-12-29T07:21:31.271Z,40
2017-12-29T07:22:31.505Z,44
2017-12-29T07:23:31.484Z,52
2017-12-29T07:24:31.196Z,56
2017-12-29T07:25:31.463Z,64
2017-12-29T07:26:31.145Z,72
2017-12-29T07:27:31.383Z,80
2017-12-29T07:28:31.356Z,88
2017-12-29T07:29:30.808Z,100
2017-12-29T07:30:31.309Z,108
2017-12-29T07:31:31.556Z,116
2017-12-29T07:32:31.010Z,128
2017-12-29T07:33:31.240Z,140
2017-12-29T07:34:31.225Z,152
2017-12-29T07:35:30.938Z,168
2017-12-29T07:36:31.459Z,184
2017-12-29T07:37:30.941Z,196
2017-12-29T07:38:30.593Z,212
2017-12-29T07:39:31.096Z,228
2017-12-29T07:40:30.601Z,244
2017-12-29T07:41:31.060Z,256
2017-12-29T07:42:30.499Z,272
2017-12-29T07:43:31.004Z,292
2017-12-29T07:44:30.712Z,308
2017-12-29T07:45:30.944Z,328
2017-12-29T07:46:30.667Z,348
2017-12-29T07:47:30.955Z,368
2017-12-29T07:48:30.873Z,388
2017-12-29T07:49:31.119Z,408
2017-12-29T07:50:30.819Z,432
2017-12-29T07:51:30.792Z,448
2017-12-29T07:52:30.516Z,468
2017-12-29T07:53:30.752Z,492
2017-12-29T07:54:30.990Z,516
2017-12-29T07:55:30.697Z,536
2017-12-29T07:56:30.680Z,560
2017-12-29T07:57:30.132Z,584
2017-12-29T07:58:30.364Z,600
2017-12-29T07:59:30.342Z,624
2017-12-29T08:00:30.340Z,648
2017-12-29T08:01:30.289Z,668
2017-12-29T08:02:30.797Z,692
2017-12-29T08:03:30.514Z,716
2017-12-29T08:04:30.230Z,724
2017-12-29T08:05:30.725Z,764
2017-12-29T08:06:29.906Z,784
2017-12-29T08:07:30.416Z,796
2017-12-29T08:08:30.391Z,816
2017-12-29T08:09:30.630Z,836
2017-12-29T08:10:30.074Z,860
2017-12-29T08:11:30.589Z,880
2017-12-29T08:12:30.558Z,900
2017-12-29T08:13:30.263Z,920
2017-12-29T08:14:30.504Z,940
2017-12-29T08:15:29.692Z,964
2017-12-29T08:16:30.257Z,984
2017-12-29T08:17:30.112Z,1004
2017-12-29T08:18:30.145Z,1028
2017-12-29T08:19:30.138Z,1044
2017-12-29T08:20:30.101Z,1060
2017-12-29T08:21:29.810Z,1080
2017-12-29T08:22:30.049Z,1100
2017-12-29T08:23:29.762Z,1120
2017-12-29T08:24:29.742Z,1140
2017-12-29T08:25:29.981Z,1156
2017-12-29T08:26:29.746Z,1172
2017-12-29T08:27:29.988Z,1192
2017-12-29T08:28:29.373Z,1212
2017-12-29T08:29:29.907Z,1232
2017-12-29T08:30:29.873Z,1244
2017-12-29T08:31:30.092Z,1260
2017-12-29T08:32:29.552Z,1280
2017-12-29T08:33:29.792Z,1296
2017-12-29T08:34:30.023Z,1308
2017-12-29T08:35:29.728Z,1328
2017-12-29T08:36:29.707Z,1344
2017-12-29T08:37:29.696Z,1356
2017-12-29T08:38:29.153Z,1376
2017-12-29T08:39:29.651Z,1392
2017-12-29T08:40:29.097Z,1404
2017-12-29T08:41:29.341Z,1424
2017-12-29T08:42:29.329Z,1440
2017-12-29T08:43:29.271Z,1452
2017-12-29T08:44:29.520Z,1464
2017-12-29T08:45:29.502Z,1476
2017-12-29T08:46:29.727Z,1484
2017-12-29T08:47:29.189Z,1500
2017-12-29T08:48:29.425Z,1524
2017-12-29T08:49:29.401Z,1532
2017-12-29T08:50:29.375Z,1548
2017-12-29T08:51:29.095Z,1560
2017-12-29T08:52:29.322Z,1576
2017-12-29T08:53:29.035Z,1600
2017-12-29T08:54:29.279Z,1612
2017-12-29T08:55:29.569Z,1620
2017-12-29T08:56:29.245Z,1640
2017-12-29T08:57:29.208Z,1648
2017-12-29T08:58:29.183Z,1668
2017-12-29T08:59:29.162Z,1676
2017-12-29T09:00:28.865Z,1688
2017-12-29T09:01:29.374Z,1700
2017-12-29T09:02:29.087Z,1712
2017-12-29T09:03:29.322Z,1724
2017-12-29T09:04:29.317Z,1732
2017-12-29T09:05:29.282Z,1752
2017-12-29T09:06:28.990Z,1768
2017-12-29T09:07:28.977Z,1792
2017-12-29T09:08:29.221Z,1804
2017-12-29T09:09:28.922Z,1816
2017-12-29T09:10:28.631Z,1836
2017-12-29T09:11:28.610Z,1848
2017-12-29T09:12:28.585Z,1872
2017-12-29T09:13:28.557Z,1896
2017-12-29T09:14:28.798Z,1916
2017-12-29T09:15:28.780Z,1932
2017-12-29T09:16:28.486Z,1948
2017-12-29T09:17:28.201Z,1968
2017-12-29T09:18:28.966Z,1984
2017-12-29T09:19:28.683Z,2000
2017-12-29T09:20:28.916Z,2008
2017-12-29T09:21:28.633Z,2036
2017-12-29T09:22:28.343Z,2068
2017-12-29T09:23:28.332Z,2132
2017-12-29T09:24:28.843Z,2176
2017-12-29T09:25:28.543Z,2196
2017-12-29T09:26:28.519Z,2216
2017-12-29T09:27:28.546Z,2236
2017-12-29T09:28:28.469Z,2268
2017-12-29T09:29:28.705Z,2308
2017-12-29T09:30:28.680Z,2356
2017-12-29T09:31:28.150Z,2444
2017-12-29T09:32:28.110Z,2552
2017-12-29T09:33:28.089Z,2620
2017-12-29T09:34:28.330Z,2668
2017-12-29T09:35:28.571Z,2744
2017-12-29T09:36:28.325Z,2836
2017-12-29T09:37:28.585Z,2912
2017-12-29T09:38:28.235Z,2820
2017-12-29T09:39:28.476Z,2716
2017-12-29T09:40:28.185Z,2840
2017-12-29T09:41:27.902Z,2880
2017-12-29T09:42:27.877Z,2936
2017-12-29T09:43:27.855Z,3044
2017-12-29T09:44:28.089Z,3080
2017-12-29T09:45:27.547Z,3144
2017-12-29T09:46:27.520Z,3272
2017-12-29T09:47:28.037Z,3352
2017-12-29T09:48:28.264Z,3256
2017-12-29T09:49:27.983Z,3128
2017-12-29T09:50:27.956Z,3140
2017-12-29T09:51:27.666Z,3876
2017-12-29T09:52:27.698Z,4912
2017-12-29T09:53:27.639Z,5600
2017-12-29T09:54:28.141Z,5524
2017-12-29T09:55:27.844Z,4796
2017-12-29T09:56:27.853Z,3604
2017-12-29T09:57:27.804Z,5124
2017-12-29T09:58:27.515Z,5316
2017-12-29T09:59:27.748Z,2568
2017-12-29T10:00:27.726Z,2464
2017-12-29T10:01:27.445Z,2372
2017-12-29T10:02:27.171Z,2736
2017-12-29T10:03:27.138Z,5648
2017-12-29T10:04:27.911Z,2672
2017-12-29T10:05:27.618Z,3560
2017-12-29T10:06:27.335Z,3788
2017-12-29T10:07:27.849Z,2868
2017-12-29T10:08:27.561Z,3120
2017-12-29T10:09:27.532Z,3540
2017-12-29T10:10:27.520Z,4368
2017-12-29T10:11:27.491Z,5348
2017-12-29T10:12:27.774Z,5472
2017-12-29T10:13:27.480Z,4708
2017-12-29T10:14:27.206Z,4260
2017-12-29T10:15:26.871Z,3948
2017-12-29T10:16:27.500Z,3892
2017-12-29T10:17:27.559Z,3852
2017-12-29T10:18:27.070Z,4052
2017-12-29T10:19:26.787Z,3960
2017-12-29T10:20:27.283Z,5072
2017-12-29T10:21:27.531Z,5076
2017-12-29T10:22:27.278Z,4816
2017-12-29T10:23:27.217Z,7816
2017-12-29T10:24:26.935Z,7212
2017-12-29T10:25:26.911Z,6824
2017-12-29T10:26:26.633Z,6912
2017-12-29T10:27:26.872Z,5640
2017-12-29T10:28:27.381Z,4532
2017-12-29T10:29:27.093Z,4972
2017-12-29T10:30:27.080Z,7720
2017-12-29T10:31:27.065Z,6548
2017-12-29T10:32:27.025Z,5348
2017-12-29T10:33:27.273Z,7740
2017-12-29T10:34:26.994Z,8656
2017-12-29T10:35:26.781Z,9448
2017-12-29T10:36:26.947Z,9608
2017-12-29T10:37:26.918Z,8292
2017-12-29T10:38:26.898Z,7960
2017-12-29T10:39:27.151Z,10396
2017-12-29T10:40:26.592Z,9684
2017-12-29T10:41:26.837Z,6024
2017-12-29T10:42:26.290Z,4912
2017-12-29T10:43:26.533Z,4596
2017-12-29T10:44:27.039Z,5952
2017-12-29T10:45:26.749Z,5504
2017-12-29T10:46:26.738Z,4604
2017-12-29T10:47:26.191Z,4444
2017-12-29T10:48:26.435Z,5732
2017-12-29T10:49:26.143Z,6660
2017-12-29T10:50:26.651Z,6676
2017-12-29T10:51:26.648Z,6256
2017-12-29T10:52:26.355Z,6364
2017-12-29T10:53:26.593Z,7204
2017-12-29T10:54:26.572Z,7244
2017-12-29T10:55:26.023Z,6864
2017-12-29T10:56:26.273Z,6800
2017-12-29T10:57:26.776Z,7872
2017-12-29T10:58:26.490Z,6496
2017-12-29T10:59:26.469Z,6240
2017-12-29T11:00:26.192Z,6212
2017-12-29T11:01:26.172Z,7568
2017-12-29T11:02:26.151Z,6032
2017-12-29T11:03:26.411Z,7956
2017-12-29T11:04:26.637Z,9428
2017-12-29T11:05:26.356Z,9488
2017-12-29T11:06:26.340Z,9644
2017-12-29T11:07:26.045Z,10704
2017-12-29T11:08:26.299Z,9328
2017-12-29T11:09:26.274Z,8072
2017-12-29T11:10:25.727Z,9624
2017-12-29T11:11:25.983Z,7480
2017-12-29T11:12:25.950Z,5640
2017-12-29T11:13:25.671Z,5020
2017-12-29T11:14:25.945Z,5188
2017-12-29T11:15:25.895Z,5432
2017-12-29T11:16:26.149Z,6296
2017-12-29T11:17:26.115Z,6652
2017-12-29T11:18:25.841Z,6864
2017-12-29T11:19:25.578Z,6840
2017-12-29T11:20:25.801Z,7896
2017-12-29T11:21:26.042Z,9092
2017-12-29T11:22:26.023Z,8856
2017-12-29T11:23:26.263Z,7940
2017-12-29T11:24:25.471Z,7404
2017-12-29T11:25:25.701Z,7644
2017-12-29T11:26:25.678Z,6960
2017-12-29T11:27:25.663Z,7156
2017-12-29T11:28:25.641Z,7020
2017-12-29T11:29:25.889Z,6992
2017-12-29T11:30:25.601Z,7120
2017-12-29T11:31:26.182Z,7168
2017-12-29T11:32:26.089Z,7360
2017-12-29T11:33:25.806Z,7520
2017-12-29T11:34:26.115Z,7604
2017-12-29T11:35:25.498Z,7740
2017-12-29T11:36:25.221Z,7896
2017-12-29T11:37:25.722Z,7912
2017-12-29T11:38:25.964Z,7840
2017-12-29T11:39:25.161Z,7712
2017-12-29T11:40:25.658Z,7492
2017-12-29T11:41:25.645Z,7268
2017-12-29T11:42:25.622Z,7096
2017-12-29T11:43:25.603Z,6988
2017-12-29T11:44:25.578Z,6852
2017-12-29T11:45:25.036Z,6716
2017-12-29T11:46:25.554Z,6592
2017-12-29T11:47:25.258Z,6544
2017-12-29T11:48:25.515Z,6524
2017-12-29T11:49:25.217Z,6512
2017-12-29T11:50:25.476Z,6532
2017-12-29T11:51:25.443Z,6520
2017-12-29T11:52:24.894Z,6552
2017-12-29T11:53:24.874Z,6528
2017-12-29T11:54:25.652Z,6516
2017-12-29T11:55:25.621Z,6496
2017-12-29T11:56:25.600Z,6496
2017-12-29T11:57:25.055Z,6524
2017-12-29T11:58:25.050Z,6552
2017-12-29T11:59:25.005Z,6568
2017-12-29T12:00:24.988Z,6548
2017-12-29T12:01:25.233Z,6504
2017-12-29T12:02:24.685Z,6468
2017-12-29T12:03:25.189Z,6480
2017-12-29T12:04:25.187Z,6508
2017-12-29T12:05:24.899Z,6584
2017-12-29T12:06:25.131Z,6676
2017-12-29T12:07:25.110Z,6776
2017-12-29T12:08:25.379Z,6828
2017-12-29T12:09:24.541Z,6780
2017-12-29T12:10:24.783Z,6696
2017-12-29T12:11:25.030Z,6760
2017-12-29T12:12:24.740Z,6868
2017-12-29T12:13:24.720Z,7016
2017-12-29T12:14:24.962Z,6772
2017-12-29T12:15:24.950Z,6912
2017-12-29T12:16:24.929Z,6960
2017-12-29T12:17:24.837Z,6900
2017-12-29T12:18:25.153Z,6756
2017-12-29T12:19:24.616Z,6792
2017-12-29T12:20:25.114Z,6224
2017-12-29T12:21:25.178Z,5448
2017-12-29T12:22:24.275Z,4964
2017-12-29T12:23:24.510Z,4644
2017-12-29T12:24:24.232Z,4376
2017-12-29T12:25:24.473Z,4192
2017-12-29T12:26:24.719Z,4040
2017-12-29T12:27:24.429Z,3980
2017-12-29T12:28:25.022Z,3988
2017-12-29T12:29:24.659Z,4052
2017-12-29T12:30:24.629Z,4160
2017-12-29T12:31:24.619Z,4296
2017-12-29T12:32:24.860Z,4408
2017-12-29T12:33:24.049Z,4512
2017-12-29T12:34:24.290Z,4604
2017-12-29T12:35:24.787Z,4692
2017-12-29T12:36:24.514Z,4780
2017-12-29T12:37:24.227Z,4872
2017-12-29T12:38:24.480Z,4944
2017-12-29T12:39:24.446Z,4936
2017-12-29T12:40:24.435Z,4840
2017-12-29T12:41:24.410Z,4644
2017-12-29T12:42:24.382Z,4396
2017-12-29T12:43:24.369Z,4112
2017-12-29T12:44:24.343Z,3804
2017-12-29T12:45:24.607Z,3512
2017-12-29T12:46:24.039Z,3252
2017-12-29T12:47:24.005Z,3032
2017-12-29T12:48:24.260Z,2856
2017-12-29T12:49:24.238Z,2724
2017-12-29T12:50:23.952Z,2624
2017-12-29T12:51:23.665Z,2564
2017-12-29T12:52:24.222Z,2540
2017-12-29T12:53:23.911Z,2548
2017-12-29T12:54:24.141Z,2560
2017-12-29T12:55:24.380Z,2544
2017-12-29T12:56:24.116Z,2524
2017-12-29T12:57:23.803Z,2496
2017-12-29T12:58:23.776Z,2456
2017-12-29T12:59:24.024Z,2400
2017-12-29T13:00:24.002Z,2320
2017-12-29T13:01:23.981Z,2216
2017-12-29T13:02:23.963Z,2100
2017-12-29T13:03:23.681Z,1968
2017-12-29T13:04:24.173Z,1816
2017-12-29T13:05:23.369Z,1700
2017-12-29T13:06:24.148Z,1636
2017-12-29T13:07:24.113Z,1628
2017-12-29T13:08:23.569Z,1644
2017-12-29T13:09:23.815Z,1628
2017-12-29T13:10:24.091Z,1584
2017-12-29T13:11:23.504Z,1552
2017-12-29T13:12:23.750Z,1576
2017-12-29T13:13:23.460Z,1608
2017-12-29T13:14:23.511Z,1644
2017-12-29T13:15:23.683Z,1644
2017-12-29T13:16:23.392Z,1624
2017-12-29T13:17:23.644Z,1640
2017-12-29T13:18:23.627Z,1680
2017-12-29T13:19:23.858Z,1724
2017-12-29T13:20:23.316Z,1740
2017-12-29T13:21:23.546Z,1704
2017-12-29T13:22:23.265Z,1628
2017-12-29T13:23:23.521Z,1540
2017-12-29T13:24:23.753Z,1444
2017-12-29T13:25:23.212Z,1372
2017-12-29T13:26:23.706Z,1336
2017-12-29T13:27:23.425Z,1348
2017-12-29T13:28:23.141Z,1392
2017-12-29T13:29:23.746Z,1440
2017-12-29T13:30:23.093Z,1480
2017-12-29T13:31:23.600Z,1492
2017-12-29T13:32:23.053Z,1468
2017-12-29T13:33:23.033Z,1432
2017-12-29T13:34:23.531Z,1392
2017-12-29T13:35:22.982Z,1372
2017-12-29T13:36:22.700Z,1376
2017-12-29T13:37:22.675Z,1404
2017-12-29T13:38:23.447Z,1428
2017-12-29T13:39:23.423Z,1424
2017-12-29T13:40:22.632Z,1412
2017-12-29T13:41:23.125Z,1424
2017-12-29T13:42:22.564Z,1460
2017-12-29T13:43:23.070Z,1520
2017-12-29T13:44:22.786Z,1600
2017-12-29T13:45:22.767Z,1664
2017-12-29T13:46:22.482Z,1696
2017-12-29T13:47:22.719Z,1696
2017-12-29T13:48:22.698Z,1672
2017-12-29T13:49:22.937Z,1648
2017-12-29T13:50:22.921Z,1604
2017-12-29T13:51:23.163Z,1520
2017-12-29T13:52:22.877Z,1440
2017-12-29T13:53:22.866Z,1412
2017-12-29T13:54:22.599Z,1428
2017-12-29T13:55:22.813Z,1480
2017-12-29T13:56:22.537Z,1532
2017-12-29T13:57:22.770Z,1592
2017-12-29T13:58:22.505Z,1628
2017-12-29T13:59:22.731Z,1632
2017-12-29T14:00:22.700Z,1576
2017-12-29T14:01:22.990Z,1488
2017-12-29T14:02:22.393Z,1420
2017-12-29T14:03:22.635Z,1380
2017-12-29T14:04:22.627Z,1388
2017-12-29T14:05:22.339Z,1412